createdAt,value
2022-09-21T00:01:43.905Z,8.8
2022-09-21T00:04:01.039Z,8.8
2022-09-21T00:06:17.820Z,9.3
2022-09-21T00:08:35.033Z,9
2022-09-21T00:10:51.688Z,9.3
2022-09-21T00:13:07.394Z,8.7
2022-09-21T00:15:23.679Z,5.1
2022-09-21T00:17:40.698Z,8.8
2022-09-21T00:19:56.298Z,9.3
2022-09-21T00:22:11.686Z,6
2022-09-21T00:24:28.542Z,5.3
2022-09-21T00:26:45.248Z,8
2022-09-21T00:29:01.189Z,8.8
2022-09-21T00:31:17.559Z,5.9
2022-09-21T00:33:34.705Z,8.8
2022-09-21T00:35:51.560Z,8.9
2022-09-21T00:38:08.611Z,9.1
2022-09-21T00:40:25.429Z,8.6
2022-09-21T00:42:42.203Z,8.8
2022-09-21T00:44:59.214Z,9.1
2022-09-21T00:47:15.460Z,8.6
2022-09-21T00:49:33.006Z,8.4
2022-09-21T00:51:49.718Z,8.6
2022-09-21T00:54:06.779Z,8.8
2022-09-21T00:56:22.229Z,8.7
2022-09-21T00:58:38.907Z,5.8
2022-09-21T01:00:55.722Z,7.9
2022-09-21T01:03:12.906Z,8.4
2022-09-21T01:05:29.660Z,8.6
2022-09-21T01:07:46.444Z,8.1
2022-09-21T01:10:03.652Z,8.3
2022-09-21T01:12:20.326Z,8.1
2022-09-21T01:14:37.401Z,8.6
2022-09-21T01:16:54.086Z,8.6
2022-09-21T01:19:09.912Z,8.4
2022-09-21T01:21:26.231Z,5.8
2022-09-21T01:23:42.230Z,8.3
2022-09-21T01:25:58.648Z,5.4
2022-09-21T01:28:15.458Z,8.2
2022-09-21T01:30:32.530Z,8.5
2022-09-21T01:32:49.358Z,8.4
2022-09-21T01:35:06.375Z,8.3
2022-09-21T01:37:23.209Z,7.9
2022-09-21T01:39:38.968Z,7.8
2022-09-21T01:41:55.200Z,5.1
2022-09-21T01:44:12.325Z,7.9
2022-09-21T01:46:28.137Z,7.7
2022-09-21T01:48:44.820Z,4.1
2022-09-21T01:51:00.476Z,7.9
2022-09-21T01:53:16.915Z,4.1
2022-09-21T01:55:34.281Z,7.6
2022-09-21T01:57:50.948Z,7.7
2022-09-21T02:00:06.866Z,7.1
2022-09-21T02:02:22.118Z,4.4
2022-09-21T02:04:38.818Z,4.8
2022-09-21T02:06:55.872Z,7.4
2022-09-21T02:09:12.846Z,7.5
2022-09-21T02:11:28.482Z,7.7
2022-09-21T02:13:44.969Z,4.9
2022-09-21T02:16:01.990Z,7.8
2022-09-21T02:18:18.935Z,8.1
2022-09-21T02:20:35.938Z,7.8
2022-09-21T02:22:51.508Z,8
2022-09-21T02:25:07.169Z,4.9
2022-09-21T02:27:23.577Z,3.9
2022-09-21T02:29:40.649Z,7.3
2022-09-21T02:31:57.677Z,7.9
2022-09-21T02:34:14.721Z,7.9
2022-09-21T02:36:30.329Z,7.6
2022-09-21T02:38:46.714Z,4.6
2022-09-21T02:41:04.000Z,7.7
2022-09-21T02:43:20.725Z,7.5
2022-09-21T02:45:37.786Z,7.8
2022-09-21T02:47:54.539Z,7.4
2022-09-21T02:50:10.479Z,7.8
2022-09-21T02:52:26.169Z,4.8
2022-09-21T02:54:43.815Z,7.5
2022-09-21T02:56:59.726Z,8.1
2022-09-21T02:59:14.913Z,4.4
2022-09-21T03:01:54.836Z,7.4
2022-09-21T03:04:11.708Z,6.8
2022-09-21T03:06:28.878Z,7.8
2022-09-21T03:08:45.545Z,7.4
2022-09-21T03:11:01.178Z,6.9
2022-09-21T03:13:17.520Z,4.3
2022-09-21T03:15:34.356Z,6.9
2022-09-21T03:17:51.358Z,7.4
2022-09-21T03:20:08.167Z,6.6
2022-09-21T03:22:23.698Z,7
2022-09-21T03:24:39.959Z,4.9
2022-09-21T03:26:55.681Z,6.9
2022-09-21T03:29:13.015Z,4.9
2022-09-21T03:31:29.004Z,7.3
2022-09-21T03:33:45.778Z,7.4
2022-09-21T03:36:02.787Z,6.8
2022-09-21T03:38:19.553Z,6.9
2022-09-21T03:40:36.046Z,7.3
2022-09-21T03:42:53.211Z,7.1
2022-09-21T03:45:10.053Z,7.5
2022-09-21T03:47:26.852Z,7.1
2022-09-21T03:49:43.743Z,7
2022-09-21T03:52:00.806Z,6.8
2022-09-21T03:54:17.360Z,7.3
2022-09-21T03:56:32.384Z,6.9
2022-09-21T03:58:49.348Z,2.4
2022-09-21T04:01:06.465Z,6.8
2022-09-21T04:03:22.987Z,6.8
2022-09-21T04:05:39.856Z,7
2022-09-21T04:07:56.842Z,6.6
2022-09-21T04:10:12.446Z,6.9
2022-09-21T04:12:28.641Z,4.3
2022-09-21T04:14:44.463Z,7
2022-09-21T04:16:59.937Z,4.8
2022-09-21T04:19:16.196Z,4.1
2022-09-21T04:21:33.423Z,7.6
2022-09-21T04:23:50.160Z,7.7
2022-09-21T04:26:07.239Z,7.6
2022-09-21T04:28:23.891Z,7.6
2022-09-21T04:30:39.654Z,7.3
2022-09-21T04:32:55.829Z,5.2
2022-09-21T04:35:12.864Z,7.3
2022-09-21T04:37:29.931Z,7.6
2022-09-21T04:39:46.479Z,7.8
2022-09-21T04:42:03.509Z,7.9
2022-09-21T04:44:20.262Z,8.4
2022-09-21T04:46:37.762Z,8.1
2022-09-21T04:48:53.984Z,8.2
2022-09-21T04:51:10.697Z,8.4
2022-09-21T04:53:27.663Z,8.9
2022-09-21T04:55:43.212Z,8.6
2022-09-21T04:57:58.937Z,6.1
2022-09-21T05:00:16.533Z,8.3
2022-09-21T05:02:33.395Z,8.9
2022-09-21T05:04:51.180Z,9.7
2022-09-21T05:07:07.110Z,9.3
2022-09-21T05:09:23.995Z,10
2022-09-21T05:11:40.871Z,9.7
2022-09-21T05:13:57.711Z,9.6
2022-09-21T05:16:14.504Z,10.1
2022-09-21T05:18:31.445Z,10.6
2022-09-21T05:20:48.331Z,10.3
2022-09-21T05:23:05.667Z,10.8
2022-09-21T05:25:22.355Z,11
2022-09-21T05:27:39.334Z,11.2
2022-09-21T05:29:56.156Z,11.9
2022-09-21T05:32:20.688Z,12
2022-09-21T05:34:37.447Z,12.6
2022-09-21T05:36:54.318Z,13.2
2022-09-21T05:39:11.249Z,13.6
2022-09-21T05:41:28.005Z,13.7
2022-09-21T05:43:44.688Z,14.4
2022-09-21T05:46:01.594Z,14.6
2022-09-21T05:48:18.211Z,14.9
2022-09-21T05:50:33.736Z,15.1
2022-09-21T05:52:50.077Z,13.1
2022-09-21T05:55:06.894Z,14.8
2022-09-21T05:57:22.491Z,14.9
2022-09-21T05:59:38.757Z,11.9
2022-09-21T06:01:55.621Z,14.1
2022-09-21T06:04:12.393Z,14.4
2022-09-21T06:06:29.156Z,13.8
2022-09-21T06:08:45.360Z,14.1
2022-09-21T06:11:01.038Z,11.1
2022-09-21T06:13:17.998Z,14.7
2022-09-21T06:15:34.764Z,14.4
2022-09-21T06:17:51.492Z,14.3
2022-09-21T06:20:08.382Z,14.6
2022-09-21T06:22:25.263Z,14.2
2022-09-21T06:24:41.951Z,14.7
2022-09-21T06:26:58.791Z,15
2022-09-21T06:29:15.513Z,15.4
2022-09-21T06:31:32.236Z,15.2
2022-09-21T06:33:48.958Z,15.8
2022-09-21T06:36:05.682Z,15.8
2022-09-21T06:38:22.362Z,15.6
2022-09-21T06:40:39.190Z,15.9
2022-09-21T06:42:55.964Z,15.8
2022-09-21T06:45:12.640Z,15.8
2022-09-21T06:47:29.326Z,16.1
2022-09-21T06:49:46.190Z,16.3
2022-09-21T06:52:02.876Z,16.6
2022-09-21T06:54:18.667Z,17.3
2022-09-21T06:56:33.380Z,14.4
2022-09-21T06:58:49.902Z,14.3
2022-09-21T07:01:06.781Z,18
2022-09-21T07:03:23.718Z,18.8
2022-09-21T07:05:40.192Z,19.6
2022-09-21T07:07:57.055Z,19.7
2022-09-21T07:11:08.494Z,18.6
2022-09-21T07:13:25.068Z,18.5
2022-09-21T07:15:41.718Z,18.3
2022-09-21T07:18:05.918Z,18.5
2022-09-21T07:20:15.108Z,19.4
2022-09-21T07:22:31.680Z,18.6
2022-09-21T07:24:48.353Z,18.4
2022-09-21T07:27:04.961Z,18.5
2022-09-21T07:29:21.561Z,18.3
2022-09-21T07:31:38.193Z,18.3
2022-09-21T07:33:54.859Z,17.9
2022-09-21T07:36:11.469Z,18.3
2022-09-21T07:38:28.159Z,17.3
2022-09-21T07:40:43.654Z,17.1
2022-09-21T07:42:59.876Z,14.7
2022-09-21T07:45:16.981Z,16.7
2022-09-21T07:47:33.323Z,14.9
2022-09-21T07:49:50.021Z,15.9
2022-09-21T07:52:08.280Z,16.8
2022-09-21T07:54:20.614Z,14.9
2022-09-21T07:56:36.914Z,14.4
2022-09-21T07:58:53.871Z,18.3
2022-09-21T08:01:10.614Z,19.3
2022-09-21T08:03:27.354Z,18.9
2022-09-21T08:05:43.059Z,20
2022-09-21T08:07:59.070Z,16.9
2022-09-21T08:10:15.920Z,18.5
2022-09-21T08:12:32.734Z,18.9
2022-09-21T08:14:49.338Z,18.6
2022-09-21T08:19:35.388Z,15.5
2022-09-21T08:21:56.427Z,19.6
2022-09-21T08:24:07.749Z,18.1
2022-09-21T08:26:22.891Z,14.9
2022-09-21T08:28:38.364Z,16.1
2022-09-21T08:30:54.213Z,17.4
2022-09-21T08:35:39.762Z,21.6
2022-09-21T08:37:56.552Z,22.5
2022-09-21T08:40:12.042Z,24.4
2022-09-21T08:42:28.235Z,20.1
2022-09-21T08:44:44.459Z,22.6
2022-09-21T08:47:01.676Z,19.8
2022-09-21T08:49:17.074Z,20.6
2022-09-21T08:51:33.419Z,17.5
2022-09-21T08:53:48.961Z,22.2
2022-09-21T08:56:05.399Z,15.8
2022-09-21T08:58:37.221Z,17.8
2022-09-21T09:01:53.713Z,18.9
2022-09-21T09:04:09.977Z,14.9
2022-09-21T09:06:26.842Z,18.8
2022-09-21T09:08:41.943Z,15.7
2022-09-21T09:10:57.705Z,20.4
2022-09-21T09:13:14.009Z,17.4
2022-09-21T09:15:30.778Z,21.4
2022-09-21T09:17:47.540Z,19.9
2022-09-21T09:20:04.107Z,18.5
2022-09-21T09:22:20.566Z,19.2
2022-09-21T09:24:36.995Z,19.4
2022-09-21T09:26:53.635Z,18
2022-09-21T09:29:09.740Z,17.4
2022-09-21T09:31:26.315Z,17.9
2022-09-21T09:33:42.481Z,18.8
2022-09-21T09:35:58.899Z,17.3
2022-09-21T09:38:30.556Z,17.7
2022-09-21T09:40:46.971Z,17.3
2022-09-21T09:43:04.817Z,17.2
2022-09-21T09:45:21.381Z,20.9
2022-09-21T09:47:36.132Z,24.8
2022-09-21T09:49:52.399Z,25.4
2022-09-21T09:52:08.913Z,27.1
2022-09-21T09:54:25.309Z,29.5
2022-09-21T09:56:41.813Z,29.3
2022-09-21T09:58:58.053Z,26.5
2022-09-21T10:01:14.468Z,27.5
2022-09-21T10:03:30.603Z,29.4
2022-09-21T10:05:47.056Z,27.8
2022-09-21T10:08:03.438Z,26.5
2022-09-21T10:10:19.645Z,26.5
2022-09-21T10:12:36.124Z,25.6
2022-09-21T10:14:52.427Z,27.6
2022-09-21T10:19:25.066Z,27.1
2022-09-21T10:21:41.441Z,25.2
2022-09-21T10:23:57.814Z,24.7
2022-09-21T10:26:14.190Z,23.9
2022-09-21T10:28:30.571Z,20.7
2022-09-21T10:30:46.835Z,20.9
2022-09-21T10:33:03.158Z,22.6
2022-09-21T10:35:19.465Z,22.4
2022-09-21T10:37:35.832Z,24.1
2022-09-21T10:39:52.148Z,24.2
2022-09-21T10:42:08.870Z,24.4
2022-09-21T10:44:24.867Z,22.9
2022-09-21T10:46:41.336Z,21.8
2022-09-21T10:48:57.622Z,21.7
2022-09-21T10:51:13.879Z,21.6
2022-09-21T10:53:29.183Z,22.9
2022-09-21T10:55:58.305Z,18.9
2022-09-21T10:58:04.895Z,22.5
2022-09-21T11:00:20.457Z,22.1
2022-09-21T11:02:36.440Z,16.5
2022-09-21T11:04:52.909Z,19.7
2022-09-21T11:07:09.306Z,20.1
2022-09-21T11:11:42.118Z,20.8
2022-09-21T11:13:58.496Z,21.9
2022-09-21T11:16:14.951Z,21.1
2022-09-21T11:18:30.930Z,21.4
2022-09-21T11:20:46.136Z,21.2
2022-09-21T11:23:02.024Z,17.8
2022-09-21T11:25:17.297Z,21.3
2022-09-21T11:27:32.635Z,16.8
2022-09-21T11:29:48.524Z,15.8
2022-09-21T11:32:05.313Z,21.4
2022-09-21T11:34:18.821Z,15.6
2022-09-21T11:36:34.212Z,14.6
2022-09-21T11:38:49.608Z,14.5
2022-09-21T11:41:05.203Z,14.4
2022-09-21T11:43:23.149Z,14.3
2022-09-21T11:45:36.447Z,13.6
2022-09-21T11:47:52.502Z,13.4
2022-09-21T11:50:29.609Z,18.5
2022-09-21T11:52:35.279Z,12.6
2022-09-21T11:54:51.524Z,13.4
2022-09-21T11:57:08.053Z,18.4
2022-09-21T11:59:23.459Z,16.8
2022-09-21T12:01:39.510Z,13.7
2022-09-21T12:03:56.193Z,16.8
2022-09-21T12:06:12.675Z,16.2
2022-09-21T12:08:29.050Z,15.9
2022-09-21T12:10:44.662Z,16.2
2022-09-21T12:13:00.689Z,12.4
2022-09-21T12:15:17.080Z,16.7
2022-09-21T12:17:32.877Z,16
2022-09-21T12:19:49.929Z,15.6
2022-09-21T12:22:06.384Z,16.1
2022-09-21T12:24:22.650Z,16.2
2022-09-21T12:26:38.984Z,16.6
2022-09-21T12:28:55.457Z,16.5
2022-09-21T12:31:10.743Z,16.4
2022-09-21T12:33:26.663Z,12.9
2022-09-21T12:35:43.167Z,17.2
2022-09-21T12:37:59.525Z,14.8
2022-09-21T12:40:16.132Z,16
2022-09-21T12:42:32.463Z,16.1
2022-09-21T12:44:48.774Z,16
2022-09-21T12:47:05.130Z,16
2022-09-21T12:49:21.528Z,15.2
2022-09-21T12:51:38.021Z,15.6
2022-09-21T12:53:54.518Z,15.5
2022-09-21T12:56:10.849Z,14.7
2022-09-21T12:59:02.019Z,16
2022-09-21T13:01:18.547Z,16.1
2022-09-21T13:03:34.914Z,16.4
2022-09-21T13:05:51.252Z,16.8
2022-09-21T13:08:07.669Z,16.4
2022-09-21T13:10:23.101Z,15.3
2022-09-21T13:12:39.270Z,12.7
2022-09-21T13:14:55.789Z,14.6
2022-09-21T13:17:12.346Z,15.9
2022-09-21T13:19:28.728Z,16.6
2022-09-21T13:21:45.359Z,16.8
2022-09-21T13:24:01.764Z,16.4
2022-09-21T13:26:21.566Z,15.1
2022-09-21T13:28:34.827Z,15.1
2022-09-21T13:30:50.337Z,15
2022-09-21T13:33:14.097Z,13
2022-09-21T13:35:29.721Z,14.3
2022-09-21T13:37:45.890Z,11.9
2022-09-21T13:40:01.689Z,14.1
2022-09-21T13:42:25.103Z,11.4
2022-09-21T13:44:41.508Z,10.9
2022-09-21T13:46:58.285Z,14.2
2022-09-21T13:49:15.252Z,14.5
2022-09-21T13:51:30.595Z,13.8
2022-09-21T13:53:45.710Z,12.1
2022-09-21T13:56:01.797Z,11.5
2022-09-21T13:58:18.491Z,16.9
2022-09-21T14:00:34.906Z,15.8
2022-09-21T14:03:04.500Z,16.1
2022-09-21T14:05:20.581Z,15.6
2022-09-21T14:07:37.005Z,16.4
2022-09-21T14:09:53.342Z,15.9
2022-09-21T14:12:09.755Z,16.1
2022-09-21T14:14:26.495Z,16.4
2022-09-21T14:16:42.480Z,15.6
2022-09-21T14:18:58.543Z,15.5
2022-09-21T14:21:15.260Z,15.4
2022-09-21T14:23:31.688Z,15.6
2022-09-21T14:25:48.074Z,15.4
2022-09-21T14:28:04.564Z,15.3
2022-09-21T14:30:21.119Z,14.9
2022-09-21T14:32:37.390Z,15
2022-09-21T14:34:53.595Z,14.8
2022-09-21T14:37:10.052Z,15.3
2022-09-21T14:39:26.292Z,15.7
2022-09-21T14:41:42.729Z,15.4
2022-09-21T14:43:59.071Z,14.6
2022-09-21T14:46:15.486Z,15
2022-09-21T14:48:31.798Z,15.3
2022-09-21T14:50:48.162Z,15.3
2022-09-21T14:53:04.582Z,15
2022-09-21T14:55:20.941Z,15
2022-09-21T14:57:37.296Z,14.9
2022-09-21T14:59:53.946Z,14.9
2022-09-21T15:01:54.999Z,13
2022-09-21T15:04:11.433Z,14.7
2022-09-21T15:06:28.007Z,13.7
2022-09-21T15:08:44.650Z,13.8
2022-09-21T15:11:00.318Z,13.6
2022-09-21T15:13:16.509Z,11.1
2022-09-21T15:15:32.156Z,13.1
2022-09-21T15:17:47.422Z,9.5
2022-09-21T15:20:03.136Z,9.3
2022-09-21T15:22:18.412Z,9.6
2022-09-21T15:24:35.026Z,9.6
2022-09-21T15:26:51.939Z,12.6
2022-09-21T15:29:25.745Z,12.4
2022-09-21T15:31:42.626Z,11.9
2022-09-21T15:33:59.302Z,12.3
2022-09-21T15:36:15.942Z,12
2022-09-21T15:38:32.653Z,12.3
2022-09-21T15:40:49.207Z,12.4
2022-09-21T15:43:05.933Z,12.2
2022-09-21T15:45:22.790Z,12.8
2022-09-21T15:47:39.263Z,12
2022-09-21T15:49:56.237Z,11.9
2022-09-21T15:52:12.654Z,13
2022-09-21T15:54:28.162Z,11.8
2022-09-21T15:56:44.469Z,10
2022-09-21T15:59:01.400Z,12.4
2022-09-21T16:01:17.964Z,12
2022-09-21T16:03:34.836Z,12.5
2022-09-21T16:05:51.344Z,11.9
2022-09-21T16:08:08.130Z,11.8
2022-09-21T16:10:24.866Z,11.8
2022-09-21T16:12:41.558Z,11.8
2022-09-21T16:15:01.952Z,11.9
2022-09-21T16:17:14.982Z,11.9
2022-09-21T16:19:31.568Z,11.6
2022-09-21T16:21:48.306Z,11.4
2022-09-21T16:24:03.917Z,11.1
2022-09-21T16:26:19.055Z,9.2
2022-09-21T16:28:34.515Z,7.8
2022-09-21T16:30:50.383Z,7.6
2022-09-21T16:33:06.631Z,8.4
2022-09-21T16:35:23.548Z,12.2
2022-09-21T16:37:40.294Z,11.1
2022-09-21T16:39:57.041Z,11.3
2022-09-21T16:42:13.968Z,10.8
2022-09-21T16:44:30.509Z,11.5
2022-09-21T16:46:47.228Z,11.1
2022-09-21T16:49:03.888Z,11.4
2022-09-21T16:51:20.718Z,11.6
2022-09-21T16:53:36.176Z,11.1
2022-09-21T16:55:52.298Z,8.3
2022-09-21T16:58:09.125Z,11.7
2022-09-21T17:00:25.917Z,10.9
2022-09-21T17:02:42.645Z,11.3
2022-09-21T17:04:59.272Z,11.1
2022-09-21T17:07:14.892Z,11.1
2022-09-21T17:09:31.109Z,9
2022-09-21T17:11:47.841Z,11.6
2022-09-21T17:14:04.616Z,11.1
2022-09-21T17:16:21.713Z,11.2
2022-09-21T17:18:38.266Z,11.3
2022-09-21T17:20:54.877Z,10.8
2022-09-21T17:23:11.678Z,10.6
2022-09-21T17:25:37.503Z,10.8
2022-09-21T17:27:54.249Z,10.9
2022-09-21T17:30:11.092Z,10.7
2022-09-21T17:32:27.652Z,10.4
2022-09-21T17:34:43.868Z,10.6
2022-09-21T17:37:01.073Z,10.8
2022-09-21T17:39:17.902Z,10.6
2022-09-21T17:41:34.638Z,10.7
2022-09-21T17:43:51.427Z,10.3
2022-09-21T17:46:08.065Z,10.3
2022-09-21T17:48:24.845Z,10.2
2022-09-21T17:50:41.643Z,9.8
2022-09-21T17:52:58.351Z,10.2
2022-09-21T17:55:14.988Z,10
2022-09-21T17:57:31.747Z,9.6
2022-09-21T17:59:48.521Z,10.3
2022-09-21T18:02:07.646Z,10.3
2022-09-21T18:04:22.014Z,9.8
2022-09-21T18:06:38.719Z,10.3
2022-09-21T18:08:55.622Z,10.1
2022-09-21T18:11:12.240Z,10.1
2022-09-21T18:13:28.939Z,9.9
2022-09-21T18:15:45.649Z,10
2022-09-21T18:18:02.382Z,9.9
2022-09-21T18:20:19.065Z,9.9
2022-09-21T18:22:35.462Z,9.8
2022-09-21T18:24:52.736Z,10
2022-09-21T18:27:09.320Z,9.9
2022-09-21T18:29:41.284Z,9.6
2022-09-21T18:31:57.359Z,9.9
2022-09-21T18:34:14.236Z,9.6
2022-09-21T18:36:30.898Z,9.8
2022-09-21T18:38:47.677Z,9.4
2022-09-21T18:41:04.466Z,10.2
2022-09-21T18:43:21.104Z,9.9
2022-09-21T18:45:37.802Z,9.4
2022-09-21T18:47:54.732Z,9.9
2022-09-21T18:50:11.384Z,9.7
2022-09-21T18:52:27.941Z,9.9
2022-09-21T18:54:44.796Z,9.8
2022-09-21T18:57:01.403Z,9.6
2022-09-21T18:59:18.189Z,9.9
2022-09-21T19:01:35.049Z,9.6
2022-09-21T19:04:04.339Z,9.6
2022-09-21T19:06:21.065Z,9.8
2022-09-21T19:08:37.892Z,9.3
2022-09-21T19:10:54.599Z,9.3
2022-09-21T19:13:11.405Z,9.4
2022-09-21T19:15:42.609Z,9.8
2022-09-21T19:18:03.200Z,9.4
2022-09-21T19:20:23.333Z,9.8
2022-09-21T19:22:36.484Z,9.4
2022-09-21T19:24:53.179Z,9.4
2022-09-21T19:27:10.009Z,9.8
2022-09-21T19:29:26.720Z,9.6
2022-09-21T19:31:43.365Z,9.6
2022-09-21T19:34:11.623Z,9.8
2022-09-21T19:36:28.494Z,9.5
2022-09-21T19:38:46.318Z,9.3
2022-09-21T19:41:01.881Z,10
2022-09-21T19:43:19.024Z,9.4
2022-09-21T19:45:35.443Z,9.7
2022-09-21T19:47:50.961Z,9.4
2022-09-21T19:50:07.306Z,6.8
2022-09-21T19:52:24.139Z,8.9
2022-09-21T19:54:39.902Z,9.3
2022-09-21T19:56:56.178Z,6.1
2022-09-21T19:59:12.039Z,8.9
2022-09-21T20:01:27.423Z,5.7
2022-09-21T20:03:43.939Z,4.9
2022-09-21T20:06:00.885Z,9.3
2022-09-21T20:08:17.958Z,9.4
2022-09-21T20:10:34.512Z,8.8
2022-09-21T20:12:51.321Z,8.8
2022-09-21T20:15:08.074Z,9.3
2022-09-21T20:17:24.857Z,8.8
2022-09-21T20:19:41.672Z,9.1
2022-09-21T20:21:58.436Z,9.5
2022-09-21T20:24:14.673Z,9.4
2022-09-21T20:26:32.257Z,9.4
2022-09-21T20:28:48.048Z,9.4
2022-09-21T20:31:04.393Z,5.1
2022-09-21T20:33:21.082Z,9.2
2022-09-21T20:35:38.208Z,9.6
2022-09-21T20:37:57.517Z,9.2
2022-09-21T20:40:12.113Z,9.6
2022-09-21T20:42:28.892Z,9.3
2022-09-21T20:44:45.950Z,9.1
2022-09-21T20:47:02.841Z,9.3
2022-09-21T20:49:19.441Z,9.3
2022-09-21T20:51:36.429Z,9.4
2022-09-21T20:53:53.226Z,9.1
2022-09-21T20:56:10.172Z,9.4
2022-09-21T20:58:26.994Z,9.3
2022-09-21T21:01:55.274Z,10
2022-09-21T21:04:12.149Z,8.6
2022-09-21T21:06:28.049Z,9.1
2022-09-21T21:08:44.106Z,5.3
2022-09-21T21:11:00.955Z,8.9
2022-09-21T21:13:17.914Z,9.3
2022-09-21T21:15:34.746Z,9.3
2022-09-21T21:17:51.474Z,9.1
2022-09-21T21:20:08.237Z,9.1
2022-09-21T21:22:25.094Z,8.8
2022-09-21T21:24:42.130Z,8.7
2022-09-21T21:27:15.236Z,8.8
2022-09-21T21:29:31.970Z,8.4
2022-09-21T21:31:48.753Z,9.3
2022-09-21T21:34:05.549Z,8.3
2022-09-21T21:36:22.328Z,8.4
2022-09-21T21:38:39.201Z,8.6
2022-09-21T21:40:55.939Z,9.2
2022-09-21T21:43:12.819Z,8.8
2022-09-21T21:45:29.560Z,8.5
2022-09-21T21:48:02.259Z,8.4
2022-09-21T21:50:19.020Z,8.8
2022-09-21T21:52:35.871Z,8.8
2022-09-21T21:54:52.635Z,8.9
2022-09-21T21:57:09.426Z,8.8
2022-09-21T21:59:26.278Z,8.5
2022-09-21T22:01:43.101Z,8.3
2022-09-21T22:03:59.235Z,8.1
2022-09-21T22:06:16.587Z,8.5
2022-09-21T22:08:33.382Z,8.3
2022-09-21T22:10:49.032Z,8.5
2022-09-21T22:13:05.326Z,5.1
2022-09-21T22:15:22.437Z,8.2
2022-09-21T22:17:39.112Z,8.3
2022-09-21T22:19:56.011Z,8.5
2022-09-21T22:22:11.612Z,8.7
2022-09-21T22:24:27.098Z,4.9
2022-09-21T22:26:43.430Z,4.5
2022-09-21T22:29:00.341Z,9.1
2022-09-21T22:31:16.289Z,8.1
2022-09-21T22:33:33.349Z,4.8
2022-09-21T22:35:49.447Z,8.9
2022-09-21T22:38:06.482Z,8.4
2022-09-21T22:40:22.754Z,8.4
2022-09-21T22:42:41.922Z,8.7
2022-09-21T22:44:56.864Z,8.3
2022-09-21T22:47:13.623Z,8.4
2022-09-21T22:49:30.494Z,8.6
2022-09-21T22:51:47.296Z,8.3
2022-09-21T22:54:04.048Z,8.6
2022-09-21T22:56:19.801Z,8.3
2022-09-21T22:58:36.098Z,5.5
2022-09-21T23:00:52.296Z,8.3
2022-09-21T23:03:07.613Z,5
2022-09-21T23:05:24.013Z,4.1
2022-09-21T23:07:40.830Z,8.7
2022-09-21T23:09:57.667Z,8
2022-09-21T23:12:14.635Z,8.1
2022-09-21T23:14:30.415Z,8.1
2022-09-21T23:16:46.723Z,4.7
2022-09-21T23:19:03.638Z,8.2
2022-09-21T23:21:20.356Z,8.4
2022-09-21T23:23:37.149Z,8.4
2022-09-21T23:25:54.471Z,8.6
2022-09-21T23:28:10.833Z,8.4
2022-09-21T23:30:27.675Z,8.5
2022-09-21T23:32:44.476Z,8.5
2022-09-21T23:35:01.359Z,8.7
2022-09-21T23:37:18.087Z,8.9
2022-09-21T23:39:34.955Z,7.8
2022-09-21T23:41:51.749Z,8.6
2022-09-21T23:44:07.539Z,8.6
2022-09-21T23:46:24.104Z,5.1
2022-09-21T23:48:40.636Z,8.6
2022-09-21T23:50:57.509Z,8.4
2022-09-21T23:53:14.335Z,8.4
2022-09-21T23:55:31.278Z,8.4
2022-09-21T23:57:47.192Z,9
